createdAt,value
2023-05-17T00:00:03.374Z,92.50
2023-05-17T00:02:32.678Z,92.45
2023-05-17T00:05:01.761Z,92.38
2023-05-17T00:07:29.443Z,92.53
2023-05-17T00:09:57.342Z,92.38
2023-05-17T00:12:24.899Z,92.36
2023-05-17T00:14:53.495Z,92.71
2023-05-17T00:17:25.780Z,92.77
2023-05-17T00:19:53.529Z,92.54
2023-05-17T00:22:22.922Z,92.64
2023-05-17T00:24:50.561Z,92.76
2023-05-17T00:27:18.407Z,92.63
2023-05-17T00:29:46.003Z,92.61
2023-05-17T00:32:13.839Z,92.67
2023-05-17T00:34:41.516Z,92.65
2023-05-17T00:37:09.803Z,92.94
2023-05-17T00:39:38.746Z,93.03
2023-05-17T00:42:07.271Z,92.77
2023-05-17T00:44:34.981Z,92.59
2023-05-17T00:47:03.965Z,92.32
2023-05-17T00:49:34.562Z,92.39
2023-05-17T00:52:03.268Z,92.07
2023-05-17T00:54:32.314Z,92.34
2023-05-17T00:57:04.165Z,92.36
2023-05-17T00:59:35.285Z,92.48
2023-05-17T01:02:05.897Z,92.64
2023-05-17T01:04:38.927Z,92.56
2023-05-17T01:07:09.717Z,92.44
2023-05-17T01:09:39.112Z,92.80
2023-05-17T01:12:16.627Z,92.90
2023-05-17T01:14:52.338Z,92.73
2023-05-17T01:17:29.825Z,92.55
2023-05-17T01:20:07.442Z,92.46
2023-05-17T01:22:47.956Z,92.51
2023-05-17T01:25:30.301Z,93.11
2023-05-17T01:28:02.873Z,92.77
2023-05-17T01:30:32.965Z,93.11
2023-05-17T01:33:03.564Z,93.60
2023-05-17T01:35:31.659Z,93.81
2023-05-17T01:38:00.371Z,94.12
2023-05-17T01:43:32.806Z,93.86
2023-05-17T01:46:08.567Z,93.92
2023-05-17T01:48:40.906Z,93.89
2023-05-17T01:51:14.473Z,94.04
2023-05-17T01:53:49.004Z,93.65
2023-05-17T01:56:22.145Z,93.78
2023-05-17T01:58:53.995Z,93.79
2023-05-17T02:04:16.910Z,93.42
2023-05-17T02:06:44.793Z,93.31
2023-05-17T02:09:12.665Z,93.77
2023-05-17T02:11:40.325Z,94.10
2023-05-17T02:14:09.798Z,94.36
2023-05-17T02:21:16.319Z,94.54
2023-05-17T02:23:44.253Z,94.43
2023-05-17T02:26:12.082Z,94.44
2023-05-17T02:28:40.341Z,94.32
2023-05-17T02:31:11.810Z,93.63
2023-05-17T02:33:40.633Z,93.43
2023-05-17T02:36:08.693Z,93.66
2023-05-17T02:39:02.159Z,93.71
2023-05-17T02:41:32.593Z,93.46
2023-05-17T02:44:00.457Z,93.19
2023-05-17T02:46:29.798Z,93.34
2023-05-17T02:51:50.823Z,93.54
2023-05-17T02:54:18.572Z,93.95
2023-05-17T02:56:46.891Z,93.67
2023-05-17T02:59:15.788Z,93.90
2023-05-17T03:01:45.011Z,94.06
2023-05-17T03:04:13.362Z,94.12
2023-05-17T03:06:41.706Z,94.41
2023-05-17T03:09:09.756Z,94.41
2023-05-17T03:11:39.816Z,94.40
2023-05-17T03:14:14.592Z,94.56
2023-05-17T03:16:42.584Z,95.02
2023-05-17T03:19:11.948Z,95.37
2023-05-17T03:21:41.339Z,95.67
2023-05-17T03:24:09.333Z,95.97
2023-05-17T03:26:39.213Z,95.84
2023-05-17T03:29:09.048Z,96.00
2023-05-17T03:31:38.690Z,96.53
2023-05-17T03:34:06.388Z,96.85
2023-05-17T03:36:36.447Z,96.96
2023-05-17T03:39:04.219Z,96.84
2023-05-17T03:41:32.162Z,97.34
2023-05-17T03:44:01.362Z,98.06
2023-05-17T03:46:29.215Z,98.23
2023-05-17T03:48:57.255Z,98.87
2023-05-17T03:51:25.940Z,98.77
2023-05-17T03:54:02.841Z,98.99
2023-05-17T03:56:32.368Z,98.67
2023-05-17T03:59:00.146Z,98.83
2023-05-17T04:01:28.836Z,99.26
2023-05-17T04:03:56.515Z,99.19
2023-05-17T04:06:25.583Z,99.08
2023-05-17T04:08:55.733Z,99.01
2023-05-17T04:11:26.518Z,99.02
2023-05-17T04:13:54.716Z,99.26
2023-05-17T04:16:24.192Z,99.55
2023-05-17T04:18:54.168Z,99.30
2023-05-17T04:21:22.201Z,99.19
2023-05-17T04:23:52.790Z,99.25
2023-05-17T04:26:21.926Z,99.42
2023-05-17T04:28:50.584Z,99.62
2023-05-17T04:31:18.821Z,99.66
2023-05-17T04:33:50.857Z,99.74
2023-05-17T04:36:18.622Z,100.00
2023-05-17T04:38:46.399Z,100.00
2023-05-17T04:41:17.892Z,100.00
2023-05-17T04:43:49.857Z,100.00
2023-05-17T04:46:25.824Z,100.00
2023-05-17T04:48:56.276Z,100.00
2023-05-17T04:51:25.249Z,100.00
2023-05-17T04:53:54.809Z,100.00
2023-05-17T04:56:22.673Z,100.00
2023-05-17T05:01:43.984Z,100.00
2023-05-17T05:04:12.612Z,100.00
2023-05-17T05:06:43.507Z,100.00
2023-05-17T05:09:11.440Z,100.00
2023-05-17T05:11:40.838Z,100.00
2023-05-17T05:14:11.082Z,100.00
2023-05-17T05:16:42.782Z,100.00
2023-05-17T05:19:10.674Z,100.00
2023-05-17T05:21:42.810Z,100.00
2023-05-17T05:24:36.806Z,100.00
2023-05-17T05:27:08.955Z,100.00
2023-05-17T05:29:39.780Z,100.00
2023-05-17T05:32:09.806Z,100.00
2023-05-17T05:34:43.869Z,100.00
2023-05-17T05:37:14.433Z,100.00
2023-05-17T05:39:43.374Z,100.00
2023-05-17T05:42:11.595Z,100.00
2023-05-17T05:44:41.412Z,100.00
2023-05-17T05:47:10.222Z,100.00
2023-05-17T05:49:37.866Z,100.00
2023-05-17T05:52:05.811Z,100.00
2023-05-17T05:54:58.933Z,100.00
2023-05-17T05:57:28.806Z,100.00
2023-05-17T06:00:00.797Z,100.00
2023-05-17T06:02:41.204Z,100.00
2023-05-17T06:05:09.793Z,100.00
2023-05-17T06:07:38.217Z,100.00
2023-05-17T06:10:06.707Z,100.00
2023-05-17T06:12:36.796Z,100.00
2023-05-17T06:15:07.744Z,100.00
2023-05-17T06:17:35.442Z,100.00
2023-05-17T06:20:03.425Z,100.00
2023-05-17T06:22:31.001Z,100.00
2023-05-17T06:24:59.081Z,100.00
2023-05-17T06:27:26.726Z,100.00
2023-05-17T06:29:55.192Z,98.72
2023-05-17T06:32:25.949Z,98.69
2023-05-17T06:34:53.665Z,98.42
2023-05-17T06:37:21.810Z,97.23
2023-05-17T06:39:55.390Z,96.70
2023-05-17T06:42:27.398Z,95.73
2023-05-17T06:44:55.024Z,95.01
2023-05-17T06:47:23.831Z,92.68
2023-05-17T06:49:55.109Z,92.56
2023-05-17T06:52:23.727Z,91.11
2023-05-17T06:54:51.304Z,90.84
2023-05-17T06:57:20.523Z,88.72
2023-05-17T06:59:48.334Z,87.31
2023-05-17T07:02:15.975Z,84.63
2023-05-17T07:04:43.947Z,84.56
2023-05-17T07:07:13.120Z,84.27
2023-05-17T07:12:32.852Z,82.37
2023-05-17T07:15:00.833Z,79.80
2023-05-17T07:17:28.942Z,79.33
2023-05-17T07:19:57.470Z,80.23
2023-05-17T07:22:26.742Z,79.27
2023-05-17T07:24:54.789Z,76.14
2023-05-17T07:27:22.461Z,74.76
2023-05-17T07:29:52.301Z,75.07
2023-05-17T07:32:20.024Z,73.91
2023-05-17T07:34:47.661Z,71.83
2023-05-17T07:37:16.816Z,72.90
2023-05-17T07:39:45.952Z,72.53
2023-05-17T07:42:13.824Z,69.68
2023-05-17T07:44:41.413Z,69.57
2023-05-17T07:47:09.246Z,69.97
2023-05-17T07:49:39.048Z,70.61
2023-05-17T07:52:06.892Z,69.54
2023-05-17T07:54:35.818Z,68.82
2023-05-17T07:57:07.189Z,68.33
2023-05-17T07:59:35.812Z,65.59
2023-05-17T08:02:03.584Z,62.39
2023-05-17T08:04:31.308Z,63.14
2023-05-17T08:07:00.861Z,62.26
2023-05-17T08:09:28.816Z,61.37
2023-05-17T08:11:57.416Z,61.56
2023-05-17T08:14:27.117Z,61.67
2023-05-17T08:16:56.815Z,62.47
2023-05-17T08:19:30.118Z,62.16
2023-05-17T08:21:58.768Z,61.43
2023-05-17T08:24:26.392Z,61.16
2023-05-17T08:29:51.868Z,61.42
2023-05-17T08:33:09.888Z,62.04
2023-05-17T08:35:41.806Z,62.59
2023-05-17T08:38:09.487Z,62.76
2023-05-17T08:43:31.923Z,62.70
2023-05-17T08:46:04.122Z,61.94
2023-05-17T08:48:59.889Z,60.00
2023-05-17T08:51:29.921Z,60.36
2023-05-17T08:53:57.981Z,61.77
2023-05-17T08:56:27.797Z,62.43
2023-05-17T08:58:58.188Z,62.84
2023-05-17T09:01:29.909Z,62.40
2023-05-17T09:04:01.275Z,61.82
2023-05-17T09:06:31.842Z,62.03
2023-05-17T09:09:01.749Z,63.07
2023-05-17T09:11:31.853Z,64.20
2023-05-17T09:14:00.824Z,64.20
2023-05-17T09:16:58.386Z,63.88
2023-05-17T09:19:26.168Z,63.70
2023-05-17T09:21:55.098Z,63.42
2023-05-17T09:24:31.833Z,63.93
2023-05-17T09:27:05.666Z,64.02
2023-05-17T09:29:33.987Z,62.53
2023-05-17T09:32:15.512Z,63.62
2023-05-17T09:34:44.287Z,61.85
2023-05-17T09:37:18.079Z,59.91
2023-05-17T09:39:47.994Z,59.55
2023-05-17T09:42:17.640Z,59.01
2023-05-17T09:44:50.921Z,58.71
2023-05-17T09:47:25.888Z,58.06
2023-05-17T09:49:54.192Z,56.68
2023-05-17T09:52:22.353Z,57.39
2023-05-17T09:54:54.827Z,58.24
2023-05-17T09:57:22.793Z,58.28
2023-05-17T09:59:51.404Z,57.63
2023-05-17T10:02:23.152Z,56.00
2023-05-17T10:04:54.057Z,56.41
2023-05-17T10:07:22.745Z,55.83
2023-05-17T10:09:52.086Z,57.71
2023-05-17T10:12:25.419Z,58.44
2023-05-17T10:14:56.951Z,58.20
2023-05-17T10:17:26.590Z,57.52
2023-05-17T10:19:57.074Z,56.49
2023-05-17T10:22:24.805Z,55.27
2023-05-17T10:24:52.949Z,55.67
2023-05-17T10:27:21.881Z,55.12
2023-05-17T10:29:55.339Z,55.97
2023-05-17T10:32:29.989Z,55.73
2023-05-17T10:35:11.402Z,55.76
2023-05-17T10:37:42.072Z,56.61
2023-05-17T10:40:13.505Z,55.54
2023-05-17T10:42:43.353Z,55.79
2023-05-17T10:45:13.085Z,52.89
2023-05-17T10:47:42.423Z,54.72
2023-05-17T10:50:14.757Z,54.17
2023-05-17T10:52:48.845Z,52.23
2023-05-17T10:55:22.481Z,52.27
2023-05-17T10:58:16.492Z,52.91
2023-05-17T11:00:47.043Z,54.05
2023-05-17T11:03:17.284Z,51.78
2023-05-17T11:06:22.519Z,52.55
2023-05-17T11:09:14.782Z,53.05
2023-05-17T11:12:09.710Z,52.44
2023-05-17T11:14:54.283Z,52.22
2023-05-17T11:17:27.381Z,53.27
2023-05-17T11:20:03.299Z,52.83
2023-05-17T11:22:39.170Z,51.77
2023-05-17T11:25:09.901Z,51.09
2023-05-17T11:28:07.640Z,50.77
2023-05-17T11:30:35.492Z,49.67
2023-05-17T11:33:07.187Z,49.94
2023-05-17T11:35:42.075Z,50.50
2023-05-17T11:38:19.822Z,50.80
2023-05-17T11:40:51.814Z,50.26
2023-05-17T11:43:21.636Z,50.67
2023-05-17T11:45:53.131Z,51.91
2023-05-17T11:48:22.946Z,50.78
2023-05-17T11:50:52.497Z,49.53
2023-05-17T11:53:28.841Z,49.91
2023-05-17T11:56:01.036Z,49.88
2023-05-17T11:58:32.878Z,49.61
2023-05-17T12:01:00.435Z,50.11
2023-05-17T12:03:29.925Z,49.51
2023-05-17T12:06:05.218Z,50.04
2023-05-17T12:11:27.782Z,48.64
2023-05-17T12:13:56.377Z,49.55
2023-05-17T12:16:25.732Z,50.27
2023-05-17T12:18:53.735Z,49.89
2023-05-17T12:21:22.231Z,48.56
2023-05-17T12:23:53.426Z,48.46
2023-05-17T12:26:22.923Z,48.26
2023-05-17T12:28:54.942Z,47.78
2023-05-17T12:31:29.161Z,46.29
2023-05-17T12:33:59.268Z,47.69
2023-05-17T12:36:29.644Z,47.61
2023-05-17T12:39:00.861Z,47.75
2023-05-17T12:41:30.227Z,48.26
2023-05-17T12:44:13.893Z,48.30
2023-05-17T12:46:43.727Z,48.19
2023-05-17T12:49:12.718Z,47.04
2023-05-17T12:51:44.813Z,47.46
2023-05-17T12:54:15.927Z,46.99
2023-05-17T12:56:44.511Z,47.93
2023-05-17T12:59:13.947Z,48.31
2023-05-17T13:01:45.467Z,48.34
2023-05-17T13:04:14.320Z,46.38
2023-05-17T13:06:46.701Z,46.96
2023-05-17T13:09:16.497Z,47.19
2023-05-17T13:11:44.812Z,47.85
2023-05-17T13:14:13.448Z,47.94
2023-05-17T13:16:42.999Z,47.26
2023-05-17T13:19:14.681Z,47.24
2023-05-17T13:21:45.877Z,46.71
2023-05-17T13:24:13.508Z,46.92
2023-05-17T13:26:42.999Z,46.86
2023-05-17T13:29:10.977Z,45.83
2023-05-17T13:31:38.823Z,44.94
2023-05-17T13:34:06.781Z,45.71
2023-05-17T13:36:34.507Z,45.41
2023-05-17T13:39:02.822Z,45.06
2023-05-17T13:41:32.333Z,44.62
2023-05-17T13:44:01.912Z,43.67
2023-05-17T13:46:29.685Z,43.91
2023-05-17T13:48:57.501Z,44.84
2023-05-17T13:51:27.735Z,44.69
2023-05-17T13:53:55.848Z,42.69
2023-05-17T13:56:23.843Z,43.34
2023-05-17T13:58:51.707Z,43.24
2023-05-17T14:01:21.184Z,44.38
2023-05-17T14:03:49.864Z,42.08
2023-05-17T14:06:18.708Z,42.31
2023-05-17T14:08:48.308Z,43.12
2023-05-17T14:11:16.097Z,40.73
2023-05-17T14:13:43.963Z,41.41
2023-05-17T14:16:13.357Z,42.13
2023-05-17T14:18:42.976Z,43.16
2023-05-17T14:21:11.919Z,43.43
2023-05-17T14:23:40.216Z,43.89
2023-05-17T14:26:09.216Z,44.44
2023-05-17T14:28:38.279Z,44.29
2023-05-17T14:31:07.330Z,44.91
2023-05-17T14:33:35.363Z,43.97
2023-05-17T14:36:06.107Z,42.72
2023-05-17T14:38:34.664Z,42.61
2023-05-17T14:41:03.139Z,42.31
2023-05-17T14:43:31.037Z,41.47
2023-05-17T14:45:58.845Z,41.46
2023-05-17T14:48:26.668Z,41.71
2023-05-17T14:50:54.850Z,40.68
2023-05-17T14:53:29.002Z,40.82
2023-05-17T14:55:58.846Z,40.27
2023-05-17T14:58:26.512Z,40.07
2023-05-17T15:01:06.201Z,39.93
2023-05-17T15:03:35.861Z,40.26
2023-05-17T15:06:07.517Z,40.41
2023-05-17T15:08:40.839Z,40.31
2023-05-17T15:11:10.669Z,39.70
2023-05-17T15:14:05.840Z,40.28
2023-05-17T15:16:34.281Z,40.45
2023-05-17T15:19:03.936Z,40.33
2023-05-17T15:21:31.994Z,40.88
2023-05-17T15:24:05.156Z,40.11
2023-05-17T15:26:33.455Z,40.69
2023-05-17T15:29:01.057Z,41.21
2023-05-17T15:31:29.435Z,41.19
2023-05-17T15:33:57.550Z,41.98
2023-05-17T15:36:25.540Z,42.41
2023-05-17T15:38:53.284Z,42.56
2023-05-17T15:41:29.554Z,42.59
2023-05-17T15:43:58.399Z,41.95
2023-05-17T15:46:26.566Z,42.63
2023-05-17T15:48:56.260Z,42.36
2023-05-17T15:51:23.925Z,43.16
2023-05-17T15:53:52.358Z,42.25
2023-05-17T15:56:24.074Z,42.45
2023-05-17T15:58:53.135Z,42.33
2023-05-17T16:01:20.767Z,42.54
2023-05-17T16:03:50.884Z,43.03
2023-05-17T16:06:19.537Z,43.05
2023-05-17T16:08:47.184Z,43.55
2023-05-17T16:11:14.885Z,43.48
2023-05-17T16:13:43.924Z,43.75
2023-05-17T16:16:14.426Z,44.14
2023-05-17T16:18:42.129Z,44.25
2023-05-17T16:21:09.770Z,44.50
2023-05-17T16:23:38.269Z,43.70
2023-05-17T16:26:06.840Z,44.21
2023-05-17T16:28:36.761Z,44.60
2023-05-17T16:31:05.899Z,44.86
2023-05-17T16:33:35.423Z,44.96
2023-05-17T16:36:03.960Z,45.60
2023-05-17T16:38:31.753Z,45.62
2023-05-17T16:41:02.990Z,45.55
2023-05-17T16:43:30.874Z,45.92
2023-05-17T16:45:59.423Z,45.78
2023-05-17T16:48:27.334Z,45.50
2023-05-17T16:50:58.170Z,45.89
2023-05-17T16:53:28.995Z,46.35
2023-05-17T16:55:58.202Z,46.56
2023-05-17T16:58:26.670Z,46.30
2023-05-17T17:00:54.347Z,46.42
2023-05-17T17:03:22.013Z,46.50
2023-05-17T17:05:50.346Z,46.89
2023-05-17T17:08:20.841Z,47.55
2023-05-17T17:10:49.390Z,47.62
2023-05-17T17:13:17.377Z,47.69
2023-05-17T17:15:45.461Z,47.13
2023-05-17T17:18:13.096Z,47.21
2023-05-17T17:20:40.966Z,47.54
2023-05-17T17:23:08.599Z,47.96
2023-05-17T17:25:37.850Z,47.96
2023-05-17T17:28:11.672Z,48.54
2023-05-17T17:30:39.950Z,48.06
2023-05-17T17:33:09.452Z,48.38
2023-05-17T17:35:37.307Z,48.24
2023-05-17T17:38:04.909Z,48.22
2023-05-17T17:40:32.850Z,48.56
2023-05-17T17:43:01.969Z,48.59
2023-05-17T17:45:30.338Z,48.52
2023-05-17T17:47:58.040Z,48.45
2023-05-17T17:50:26.933Z,48.91
2023-05-17T17:52:54.567Z,49.13
2023-05-17T17:55:22.364Z,48.92
2023-05-17T17:57:51.742Z,48.67
2023-05-17T18:00:22.227Z,48.45
2023-05-17T18:02:50.451Z,48.79
2023-05-17T18:05:18.880Z,49.51
2023-05-17T18:07:46.530Z,49.53
2023-05-17T18:10:14.178Z,49.97
2023-05-17T18:12:41.802Z,50.07
2023-05-17T18:15:10.787Z,49.96
2023-05-17T18:17:42.173Z,50.22
2023-05-17T18:20:10.840Z,49.94
2023-05-17T18:22:40.050Z,49.96
2023-05-17T18:25:08.118Z,49.84
2023-05-17T18:27:36.703Z,50.42
2023-05-17T18:30:04.536Z,49.60
2023-05-17T18:32:32.509Z,49.88
2023-05-17T18:35:01.645Z,50.39
2023-05-17T18:37:30.364Z,50.05
2023-05-17T18:39:59.630Z,50.30
2023-05-17T18:42:27.316Z,50.40
2023-05-17T18:44:54.967Z,50.69
2023-05-17T18:47:23.337Z,51.15
2023-05-17T18:49:51.834Z,51.79
2023-05-17T18:52:20.779Z,52.38
2023-05-17T18:54:51.669Z,52.72
2023-05-17T18:57:21.251Z,52.93
2023-05-17T18:59:48.872Z,53.44
2023-05-17T19:02:16.467Z,53.57
2023-05-17T19:04:45.007Z,53.74
2023-05-17T19:07:12.687Z,54.29
2023-05-17T19:10:06.875Z,54.23
2023-05-17T19:12:36.166Z,54.75
2023-05-17T19:15:04.089Z,55.00
2023-05-17T19:17:31.886Z,55.01
2023-05-17T19:20:00.319Z,55.54
2023-05-17T19:22:27.985Z,55.69
2023-05-17T19:24:57.759Z,55.86
2023-05-17T19:27:27.470Z,55.95
2023-05-17T19:29:55.031Z,56.51
2023-05-17T19:32:22.949Z,56.34
2023-05-17T19:34:51.266Z,56.70
2023-05-17T19:37:18.957Z,56.76
2023-05-17T19:39:46.547Z,56.92
2023-05-17T19:42:15.466Z,57.00
2023-05-17T19:44:43.874Z,57.09
2023-05-17T19:47:11.457Z,57.48
2023-05-17T19:49:39.197Z,57.98
2023-05-17T19:52:13.871Z,58.33
2023-05-17T19:55:05.828Z,58.49
2023-05-17T19:57:34.914Z,58.69
2023-05-17T20:00:03.872Z,58.90
2023-05-17T20:02:32.061Z,59.21
2023-05-17T20:05:02.130Z,59.49
2023-05-17T20:07:29.954Z,59.25
2023-05-17T20:09:58.382Z,59.67
2023-05-17T20:12:26.530Z,59.80
2023-05-17T20:15:22.693Z,59.86
2023-05-17T20:17:50.563Z,59.85
2023-05-17T20:20:18.385Z,59.97
2023-05-17T20:22:46.667Z,60.18
2023-05-17T20:25:14.290Z,60.23
2023-05-17T20:27:42.871Z,60.34
2023-05-17T20:30:12.193Z,60.15
2023-05-17T20:32:41.634Z,60.33
2023-05-17T20:35:09.754Z,60.57
2023-05-17T20:38:02.826Z,60.80
2023-05-17T20:40:30.834Z,60.94
2023-05-17T20:42:58.834Z,61.12
2023-05-17T20:45:29.659Z,60.92
2023-05-17T20:47:58.739Z,61.16
2023-05-17T20:50:26.579Z,61.04
2023-05-17T20:52:54.170Z,61.28
2023-05-17T20:55:22.943Z,61.32
2023-05-17T20:57:52.248Z,61.97
2023-05-17T21:00:21.116Z,61.99
2023-05-17T21:02:48.874Z,61.92
2023-05-17T21:05:17.884Z,61.99
2023-05-17T21:07:46.556Z,62.67
2023-05-17T21:10:14.255Z,62.76
2023-05-17T21:12:41.885Z,62.76
2023-05-17T21:15:17.161Z,62.83
2023-05-17T21:17:49.291Z,63.17
2023-05-17T21:20:18.868Z,63.38
2023-05-17T21:22:46.472Z,63.54
2023-05-17T21:25:14.095Z,63.68
2023-05-17T21:27:42.388Z,64.10
2023-05-17T21:30:11.033Z,64.17
2023-05-17T21:32:38.892Z,64.29
2023-05-17T21:35:08.964Z,64.48
2023-05-17T21:37:40.007Z,64.83
2023-05-17T21:40:09.989Z,64.61
2023-05-17T21:42:37.696Z,64.79
2023-05-17T21:45:06.420Z,65.37
2023-05-17T21:47:35.849Z,65.61
2023-05-17T21:50:04.044Z,65.68
2023-05-17T21:52:32.073Z,65.64
2023-05-17T21:55:01.018Z,65.76
2023-05-17T21:57:28.631Z,66.05
2023-05-17T21:59:56.362Z,66.49
2023-05-17T22:02:24.452Z,66.56
2023-05-17T22:04:52.259Z,67.03
2023-05-17T22:07:19.943Z,66.86
2023-05-17T22:09:48.087Z,67.20
2023-05-17T22:12:25.239Z,67.76
2023-05-17T22:14:53.647Z,68.28
2023-05-17T22:17:35.231Z,69.42
2023-05-17T22:20:12.056Z,69.52
2023-05-17T22:22:39.778Z,69.67
2023-05-17T22:25:08.875Z,69.67
2023-05-17T22:27:37.965Z,69.67
2023-05-17T22:30:07.371Z,70.12
2023-05-17T22:32:35.054Z,70.15
2023-05-17T22:35:02.775Z,70.14
2023-05-17T22:37:32.813Z,70.27
2023-05-17T22:40:00.900Z,70.23
2023-05-17T22:42:28.581Z,71.17
2023-05-17T22:44:57.573Z,71.57
2023-05-17T22:47:26.564Z,71.54
2023-05-17T22:49:54.332Z,71.77
2023-05-17T22:52:22.081Z,71.83
2023-05-17T22:54:50.478Z,72.14
2023-05-17T22:57:18.184Z,72.86
2023-05-17T22:59:45.975Z,73.00
2023-05-17T23:02:14.917Z,73.35
2023-05-17T23:04:45.811Z,73.69
2023-05-17T23:07:14.899Z,74.65
2023-05-17T23:09:42.673Z,75.70
2023-05-17T23:12:14.174Z,76.52
2023-05-17T23:14:42.421Z,77.32
2023-05-17T23:17:10.353Z,78.15
2023-05-17T23:19:40.548Z,78.80
2023-05-17T23:22:08.393Z,79.13
2023-05-17T23:24:38.483Z,80.29
2023-05-17T23:27:09.626Z,80.73
2023-05-17T23:29:37.342Z,81.25
2023-05-17T23:32:05.288Z,80.99
2023-05-17T23:34:33.002Z,80.78
2023-05-17T23:37:02.176Z,80.52
2023-05-17T23:39:29.816Z,80.82
2023-05-17T23:41:59.016Z,80.49
2023-05-17T23:44:27.373Z,80.29
2023-05-17T23:46:56.131Z,80.11
2023-05-17T23:49:23.870Z,80.49
2023-05-17T23:51:51.992Z,81.30
2023-05-17T23:54:21.870Z,82.38
2023-05-17T23:56:49.703Z,82.94
2023-05-17T23:59:17.312Z,83.36
